createdAt,value
2019-05-02T00:01:15.894Z,16.83
2019-05-02T00:04:02.369Z,20.90
2019-05-02T00:06:48.756Z,13.07
2019-05-02T00:09:33.814Z,13.77
2019-05-02T00:12:19.279Z,13.80
2019-05-02T00:15:04.144Z,22.37
2019-05-02T00:17:49.112Z,20.20
2019-05-02T00:20:33.889Z,18.85
2019-05-02T00:23:23.065Z,16.73
2019-05-02T00:26:05.416Z,19.87
2019-05-02T00:28:50.103Z,15.20
2019-05-02T00:31:34.809Z,19.50
2019-05-02T00:34:20.846Z,19.27
2019-05-02T00:37:05.635Z,20.43
2019-05-02T00:39:50.529Z,19.73
2019-05-02T00:42:35.668Z,18.70
2019-05-02T00:45:23.939Z,27.00
2019-05-02T00:51:15.956Z,20.87
2019-05-02T00:54:02.064Z,27.60
2019-05-02T00:56:46.504Z,19.70
2019-05-02T00:59:23.806Z,20.23
2019-05-02T01:02:19.319Z,23.17
2019-05-02T01:05:04.577Z,20.47
2019-05-02T01:07:49.636Z,22.00
2019-05-02T01:10:35.236Z,21.97
2019-05-02T01:13:20.411Z,22.47
2019-05-02T01:16:05.068Z,18.63
2019-05-02T01:18:49.767Z,18.90
2019-05-02T01:21:38.813Z,20.60
2019-05-02T01:24:20.761Z,18.03
2019-05-02T01:27:07.770Z,21.12
2019-05-02T01:29:54.127Z,21.57
2019-05-02T01:33:01.280Z,20.47
2019-05-02T01:35:53.475Z,20.80
2019-05-02T01:38:43.158Z,23.10
2019-05-02T01:41:29.188Z,18.33
2019-05-02T01:44:14.365Z,17.03
2019-05-02T01:47:00.040Z,19.00
2019-05-02T01:49:45.119Z,14.93
2019-05-02T01:52:29.765Z,14.53
2019-05-02T01:55:17.048Z,18.85
2019-05-02T01:58:00.968Z,20.40
2019-05-02T02:00:46.007Z,19.23
2019-05-02T02:03:30.756Z,20.60
2019-05-02T02:06:15.135Z,17.77
2019-05-02T02:09:03.306Z,19.97
2019-05-02T02:11:46.474Z,20.03
2019-05-02T02:14:31.263Z,17.27
2019-05-02T02:17:17.296Z,18.83
2019-05-02T02:20:03.964Z,19.13
2019-05-02T02:23:10.225Z,20.20
2019-05-02T02:26:01.835Z,16.63
2019-05-02T02:28:46.567Z,24.13
2019-05-02T02:31:31.344Z,24.87
2019-05-02T02:34:21.250Z,21.53
2019-05-02T02:37:05.509Z,20.13
2019-05-02T02:39:54.296Z,17.53
2019-05-02T02:42:35.355Z,17.37
2019-05-02T02:45:23.080Z,17.20
2019-05-02T02:48:07.836Z,17.50
2019-05-02T02:50:52.508Z,17.20
2019-05-02T02:53:37.275Z,15.33
2019-05-02T02:56:21.912Z,21.53
2019-05-02T02:59:06.309Z,23.67
2019-05-02T03:01:51.011Z,22.90
2019-05-02T03:04:35.735Z,18.77
2019-05-02T03:07:25.821Z,21.13
2019-05-02T03:10:08.471Z,17.80
2019-05-02T03:13:15.181Z,19.97
2019-05-02T03:16:16.341Z,24.00
2019-05-02T03:19:00.896Z,20.47
2019-05-02T03:21:54.219Z,20.67
2019-05-02T03:24:44.137Z,20.23
2019-05-02T03:27:29.757Z,19.50
2019-05-02T03:30:28.732Z,23.20
2019-05-02T03:33:06.760Z,26.25
2019-05-02T03:35:49.070Z,28.60
2019-05-02T03:38:34.886Z,24.70
2019-05-02T03:41:20.804Z,22.57
2019-05-02T03:44:11.425Z,20.03
2019-05-02T03:46:54.294Z,25.53
2019-05-02T03:49:41.135Z,22.50
2019-05-02T03:52:24.624Z,20.47
2019-05-02T03:55:09.276Z,21.10
2019-05-02T03:57:57.846Z,20.40
2019-05-02T04:00:42.573Z,21.07
2019-05-02T04:03:27.119Z,20.90
2019-05-02T04:06:13.671Z,19.30
2019-05-02T04:09:00.001Z,19.77
2019-05-02T04:11:44.971Z,18.70
2019-05-02T04:14:38.134Z,22.70
2019-05-02T04:17:16.020Z,20.50
2019-05-02T04:20:01.088Z,20.73
2019-05-02T04:22:48.961Z,19.77
2019-05-02T04:25:33.865Z,22.37
2019-05-02T04:28:19.171Z,19.23
2019-05-02T04:31:06.038Z,21.53
2019-05-02T04:33:50.802Z,20.17
2019-05-02T04:36:23.678Z,18.47
2019-05-02T04:39:15.140Z,20.83
2019-05-02T04:41:54.875Z,20.23
2019-05-02T04:44:52.752Z,21.70
2019-05-02T04:47:29.063Z,23.35
2019-05-02T04:50:17.860Z,21.87
2019-05-02T04:52:59.404Z,20.57
2019-05-02T04:55:52.070Z,29.00
2019-05-02T04:58:34.829Z,24.97
2019-05-02T05:01:16.945Z,22.80
2019-05-02T05:04:03.058Z,29.27
2019-05-02T05:06:55.908Z,24.97
2019-05-02T05:09:34.435Z,23.33
2019-05-02T05:12:19.447Z,25.35
2019-05-02T05:15:04.132Z,26.87
2019-05-02T05:17:50.086Z,21.20
2019-05-02T05:20:37.752Z,24.67
2019-05-02T05:23:23.478Z,26.50
2019-05-02T05:26:08.354Z,22.27
2019-05-02T05:28:52.772Z,24.57
2019-05-02T05:31:38.254Z,20.30
2019-05-02T05:34:27.852Z,20.50
2019-05-02T05:37:13.245Z,19.27
2019-05-02T05:39:55.759Z,22.30
2019-05-02T05:42:40.436Z,24.33
2019-05-02T05:45:27.770Z,25.00
2019-05-02T05:48:13.732Z,24.40
2019-05-02T05:50:58.653Z,21.33
2019-05-02T05:53:43.420Z,22.50
2019-05-02T05:56:32.482Z,24.17
2019-05-02T05:59:17.378Z,19.93
2019-05-02T06:02:05.625Z,24.27
2019-05-02T06:04:50.246Z,28.93
2019-05-02T06:07:41.856Z,31.13
2019-05-02T06:10:21.393Z,32.40
2019-05-02T06:13:10.827Z,28.73
2019-05-02T06:16:02.089Z,32.07
2019-05-02T06:18:41.795Z,28.27
2019-05-02T06:21:25.623Z,26.73
2019-05-02T06:24:10.973Z,27.53
2019-05-02T06:26:55.743Z,27.63
2019-05-02T06:29:40.643Z,35.37
2019-05-02T06:32:25.384Z,29.50
2019-05-02T06:35:10.448Z,25.27
2019-05-02T06:37:55.210Z,31.83
2019-05-02T06:40:28.484Z,28.17
2019-05-02T06:43:13.084Z,29.10
2019-05-02T06:45:57.835Z,32.63
2019-05-02T06:48:42.912Z,27.37
2019-05-02T06:51:27.438Z,35.90
2019-05-02T06:54:12.244Z,36.80
2019-05-02T06:56:56.926Z,27.47
2019-05-02T06:59:41.703Z,38.63
2019-05-02T07:02:28.136Z,30.50
2019-05-02T07:05:12.787Z,35.20
2019-05-02T07:07:57.584Z,34.13
2019-05-02T07:10:44.694Z,43.60
2019-05-02T07:13:28.612Z,52.40
2019-05-02T07:16:38.680Z,42.03
2019-05-02T07:19:29.383Z,43.67
2019-05-02T07:22:14.301Z,52.40
2019-05-02T07:25:01.946Z,46.63
2019-05-02T07:27:45.747Z,49.23
2019-05-02T07:30:35.070Z,56.17
2019-05-02T07:33:17.191Z,52.63
2019-05-02T07:36:01.875Z,52.23
2019-05-02T07:38:46.548Z,55.47
2019-05-02T07:41:31.196Z,60.50
2019-05-02T07:44:15.636Z,60.87
2019-05-02T07:47:02.639Z,77.40
2019-05-02T07:49:47.835Z,69.37
2019-05-02T07:52:33.602Z,76.87
2019-05-02T07:55:18.565Z,69.60
2019-05-02T07:58:06.982Z,73.67
2019-05-02T08:00:50.186Z,66.10
2019-05-02T08:03:34.869Z,72.07
2019-05-02T08:06:34.048Z,63.57
2019-05-02T08:09:08.992Z,69.33
2019-05-02T08:11:53.661Z,72.87
2019-05-02T08:14:38.768Z,60.10
2019-05-02T08:17:23.523Z,65.17
2019-05-02T08:20:05.061Z,65.23
2019-05-02T08:22:50.465Z,66.37
2019-05-02T08:25:35.387Z,67.03
2019-05-02T08:28:25.870Z,65.90
2019-05-02T08:31:13.648Z,74.20
2019-05-02T08:33:56.880Z,61.90
2019-05-02T08:36:41.662Z,70.37
2019-05-02T08:39:33.264Z,65.27
2019-05-02T08:42:12.712Z,65.60
2019-05-02T08:45:00.920Z,61.90
2019-05-02T08:47:44.083Z,64.00
2019-05-02T08:50:31.918Z,61.17
2019-05-02T08:53:19.882Z,58.97
2019-05-02T08:56:01.844Z,59.77
2019-05-02T08:58:49.842Z,61.80
2019-05-02T09:01:35.285Z,59.97
2019-05-02T09:04:24.097Z,60.93
2019-05-02T09:07:06.884Z,62.57
2019-05-02T09:09:51.844Z,60.23
2019-05-02T09:12:36.911Z,65.97
2019-05-02T09:15:22.901Z,59.03
2019-05-02T09:18:07.600Z,62.70
2019-05-02T09:20:56.377Z,65.00
2019-05-02T09:23:41.133Z,60.57
2019-05-02T09:26:35.162Z,57.67
2019-05-02T09:29:12.584Z,63.67
2019-05-02T09:31:57.505Z,58.17
2019-05-02T09:34:42.420Z,59.27
2019-05-02T09:37:27.503Z,61.33
2019-05-02T09:40:16.532Z,58.47
2019-05-02T09:43:01.976Z,65.83
2019-05-02T09:45:45.116Z,63.97
2019-05-02T09:48:31.795Z,69.20
2019-05-02T09:51:17.464Z,62.30
2019-05-02T09:54:06.238Z,57.70
2019-05-02T09:56:48.853Z,61.40
2019-05-02T09:59:33.768Z,55.50
2019-05-02T10:02:18.261Z,57.10
2019-05-02T10:05:03.139Z,65.80
2019-05-02T10:07:48.666Z,62.87
2019-05-02T10:10:28.148Z,64.50
2019-05-02T10:13:12.693Z,57.30
2019-05-02T10:15:57.676Z,63.80
2019-05-02T10:18:43.077Z,57.67
2019-05-02T10:21:28.322Z,59.53
2019-05-02T10:24:12.876Z,53.03
2019-05-02T10:27:04.091Z,55.93
2019-05-02T10:29:44.015Z,59.20
2019-05-02T10:32:28.803Z,61.97
2019-05-02T10:35:15.513Z,53.33
2019-05-02T10:37:59.979Z,52.23
2019-05-02T10:40:48.390Z,56.53
2019-05-02T10:43:32.926Z,54.90
2019-05-02T10:46:36.014Z,54.97
2019-05-02T10:49:17.372Z,57.77
2019-05-02T10:52:02.651Z,60.93
2019-05-02T10:54:47.724Z,61.47
2019-05-02T10:57:32.688Z,56.70
2019-05-02T11:00:17.782Z,54.07
2019-05-02T11:03:04.089Z,61.47
2019-05-02T11:05:52.559Z,56.00
2019-05-02T11:08:42.230Z,52.90
2019-05-02T11:11:24.270Z,47.20
2019-05-02T11:14:19.767Z,49.23
2019-05-02T11:17:13.817Z,51.30
2019-05-02T11:23:02.251Z,49.40
2019-05-02T11:25:47.328Z,44.57
2019-05-02T11:28:32.380Z,46.37
2019-05-02T11:31:17.023Z,40.53
2019-05-02T11:34:02.023Z,38.43
2019-05-02T11:36:46.591Z,45.43
2019-05-02T11:39:37.729Z,55.47
2019-05-02T11:42:21.925Z,45.60
2019-05-02T11:45:03.932Z,44.23
2019-05-02T11:47:48.438Z,42.57
2019-05-02T11:50:35.460Z,40.40
2019-05-02T11:53:29.009Z,38.97
2019-05-02T11:56:07.836Z,35.60
2019-05-02T11:58:53.861Z,34.23
2019-05-02T12:01:39.693Z,36.23
2019-05-02T12:04:24.618Z,33.50
2019-05-02T12:07:09.557Z,36.57
2019-05-02T12:09:57.116Z,39.80
2019-05-02T12:12:42.566Z,35.13
2019-05-02T12:15:27.095Z,39.67
2019-05-02T12:18:12.152Z,35.97
2019-05-02T12:20:56.865Z,37.60
2019-05-02T12:23:41.859Z,39.43
2019-05-02T12:26:26.343Z,39.13
2019-05-02T12:29:12.200Z,41.83
2019-05-02T12:31:57.205Z,37.27
2019-05-02T12:34:42.114Z,36.30
2019-05-02T12:37:27.000Z,35.17
2019-05-02T12:40:12.248Z,34.73
2019-05-02T12:42:57.252Z,37.30
2019-05-02T12:45:42.305Z,33.90
2019-05-02T12:48:27.138Z,35.10
2019-05-02T12:51:12.737Z,32.83
2019-05-02T12:53:57.514Z,41.20
2019-05-02T12:56:42.273Z,41.87
2019-05-02T12:59:26.975Z,45.87
2019-05-02T13:02:13.594Z,39.77
2019-05-02T13:04:58.256Z,40.40
2019-05-02T13:07:50.425Z,45.50
2019-05-02T13:10:32.728Z,46.40
2019-05-02T13:13:17.491Z,38.67
2019-05-02T13:16:03.864Z,37.87
2019-05-02T13:18:48.660Z,33.97
2019-05-02T13:21:57.988Z,30.30
2019-05-02T13:24:47.131Z,37.43
2019-05-02T13:27:32.281Z,35.70
2019-05-02T13:33:38.885Z,46.47
2019-05-02T13:36:23.500Z,37.63
2019-05-02T13:39:08.063Z,44.87
2019-05-02T13:41:52.763Z,44.70
2019-05-02T13:44:42.241Z,37.87
2019-05-02T13:47:27.665Z,41.47
2019-05-02T13:50:12.969Z,41.00
2019-05-02T13:52:58.181Z,44.67
2019-05-02T13:56:02.149Z,44.10
2019-05-02T13:58:46.723Z,54.23
2019-05-02T14:01:31.690Z,49.77
2019-05-02T14:04:16.385Z,55.00
2019-05-02T14:07:02.998Z,49.23
2019-05-02T14:09:50.906Z,52.10
2019-05-02T14:12:53.012Z,48.47
2019-05-02T14:15:38.976Z,47.60
2019-05-02T14:18:29.207Z,44.77
2019-05-02T14:21:09.899Z,49.27
2019-05-02T14:23:54.687Z,45.60
2019-05-02T14:26:39.415Z,47.63
2019-05-02T14:29:23.936Z,46.60
2019-05-02T14:32:20.401Z,42.63
2019-05-02T14:35:02.408Z,46.03
2019-05-02T14:37:48.595Z,47.03
2019-05-02T14:40:33.740Z,43.23
2019-05-02T14:43:38.126Z,49.33
2019-05-02T14:46:29.007Z,47.50
2019-05-02T14:49:12.140Z,43.67
2019-05-02T14:52:01.498Z,41.70
2019-05-02T14:54:47.773Z,37.20
2019-05-02T14:57:29.827Z,40.63
2019-05-02T15:00:16.883Z,42.20
2019-05-02T15:03:03.249Z,39.87
2019-05-02T15:05:47.680Z,39.60
2019-05-02T15:08:36.661Z,45.27
2019-05-02T15:11:19.098Z,36.63
2019-05-02T15:14:03.492Z,38.57
2019-05-02T15:16:49.781Z,43.60
2019-05-02T15:19:34.601Z,44.67
2019-05-02T15:22:19.050Z,44.90
2019-05-02T15:25:07.887Z,36.47
2019-05-02T15:27:58.189Z,51.77
2019-05-02T15:30:43.914Z,43.50
2019-05-02T15:33:25.615Z,47.07
2019-05-02T15:36:12.002Z,47.07
2019-05-02T15:38:56.447Z,43.60
2019-05-02T15:41:44.760Z,39.93
2019-05-02T15:44:28.428Z,36.03
2019-05-02T15:47:13.364Z,34.30
2019-05-02T15:49:57.969Z,35.50
2019-05-02T15:52:47.756Z,41.33
2019-05-02T15:55:39.707Z,43.27
2019-05-02T15:58:23.766Z,43.50
2019-05-02T16:01:13.726Z,47.53
2019-05-02T16:04:01.713Z,31.47
2019-05-02T16:06:46.645Z,47.77
2019-05-02T16:09:32.973Z,44.87
2019-05-02T16:12:17.663Z,45.13
2019-05-02T16:15:04.979Z,45.37
2019-05-02T16:17:48.760Z,40.77
2019-05-02T16:20:47.254Z,48.50
2019-05-02T16:23:32.961Z,41.60
2019-05-02T16:26:14.193Z,46.33
2019-05-02T16:28:58.888Z,45.60
2019-05-02T16:31:45.428Z,40.20
2019-05-02T16:34:33.808Z,44.23
2019-05-02T16:37:17.850Z,46.63
2019-05-02T16:40:02.681Z,44.80
2019-05-02T16:42:47.593Z,54.27
2019-05-02T16:45:32.752Z,51.40
2019-05-02T16:48:17.438Z,52.70
2019-05-02T16:51:02.287Z,46.37
2019-05-02T16:53:47.084Z,44.47
2019-05-02T16:56:31.886Z,51.58
2019-05-02T16:59:16.987Z,48.20
2019-05-02T17:02:07.728Z,45.90
2019-05-02T17:04:49.478Z,54.40
2019-05-02T17:07:39.509Z,50.10
2019-05-02T17:10:36.863Z,51.37
2019-05-02T17:13:21.623Z,55.93
2019-05-02T17:16:13.103Z,66.77
2019-05-02T17:18:56.579Z,57.30
2019-05-02T17:21:53.189Z,50.83
2019-05-02T17:24:27.484Z,58.25
2019-05-02T17:27:20.159Z,43.57
2019-05-02T17:29:59.518Z,41.00
2019-05-02T17:32:45.169Z,42.13
2019-05-02T17:35:29.862Z,45.90
2019-05-02T17:38:14.553Z,45.83
2019-05-02T17:41:06.397Z,47.07
2019-05-02T17:43:45.834Z,42.00
2019-05-02T17:46:30.601Z,45.80
2019-05-02T17:49:14.923Z,46.23
2019-05-02T17:52:19.693Z,49.30
2019-05-02T17:55:01.816Z,54.73
2019-05-02T17:57:46.509Z,48.17
2019-05-02T18:00:34.209Z,45.63
2019-05-02T18:03:24.220Z,52.57
2019-05-02T18:06:07.601Z,56.50
2019-05-02T18:08:55.252Z,58.87
2019-05-02T18:11:38.629Z,56.20
2019-05-02T18:14:24.196Z,63.83
2019-05-02T18:17:12.604Z,55.33
2019-05-02T18:20:06.383Z,60.97
2019-05-02T18:22:51.977Z,68.00
2019-05-02T18:25:44.021Z,56.40
2019-05-02T18:28:28.765Z,54.50
2019-05-02T18:31:23.939Z,59.67
2019-05-02T18:34:02.323Z,63.57
2019-05-02T18:36:47.375Z,70.27
2019-05-02T18:39:34.795Z,63.03
2019-05-02T18:42:22.022Z,58.17
2019-05-02T18:45:05.317Z,59.70
2019-05-02T18:47:53.964Z,64.67
2019-05-02T18:50:41.553Z,60.20
2019-05-02T18:53:27.001Z,54.27
2019-05-02T18:56:05.156Z,57.47
2019-05-02T18:58:49.549Z,55.98
2019-05-02T19:01:34.188Z,58.47
2019-05-02T19:04:19.124Z,54.43
2019-05-02T19:06:58.368Z,61.37
2019-05-02T19:09:50.804Z,59.37
2019-05-02T19:12:29.477Z,61.87
2019-05-02T19:15:14.233Z,66.97
2019-05-02T19:17:58.916Z,68.67
2019-05-02T19:20:50.479Z,64.47
2019-05-02T19:23:31.872Z,62.73
2019-05-02T19:26:16.625Z,71.27
2019-05-02T19:29:08.438Z,76.93
2019-05-02T19:31:52.792Z,59.80
2019-05-02T19:34:37.550Z,67.10
2019-05-02T19:37:22.125Z,69.27
2019-05-02T19:40:06.870Z,60.73
2019-05-02T19:42:52.709Z,76.13
2019-05-02T19:45:37.412Z,76.00
2019-05-02T19:48:22.691Z,74.80
2019-05-02T19:51:12.329Z,92.07
2019-05-02T19:53:59.381Z,85.70
2019-05-02T19:56:45.976Z,78.03
2019-05-02T19:59:28.276Z,83.00
2019-05-02T20:02:13.414Z,79.27
2019-05-02T20:04:58.120Z,79.50
2019-05-02T20:07:42.818Z,85.67
2019-05-02T20:10:27.526Z,85.03
2019-05-02T20:13:12.222Z,78.70
2019-05-02T20:16:05.683Z,75.23
2019-05-02T20:18:48.949Z,85.07
2019-05-02T20:21:38.628Z,69.63
2019-05-02T20:24:25.293Z,70.87
2019-05-02T20:27:12.237Z,78.57
2019-05-02T20:29:56.442Z,73.10
2019-05-02T20:32:42.743Z,68.63
2019-05-02T20:35:27.517Z,78.37
2019-05-02T20:38:13.616Z,73.80
2019-05-02T20:40:58.603Z,85.63
2019-05-02T20:43:44.946Z,71.23
2019-05-02T20:46:32.633Z,78.80
2019-05-02T20:49:17.750Z,75.37
2019-05-02T20:52:02.516Z,76.70
2019-05-02T20:54:47.306Z,70.63
2019-05-02T20:57:31.893Z,79.57
2019-05-02T21:00:16.475Z,80.50
2019-05-02T21:03:02.675Z,76.90
2019-05-02T21:05:52.621Z,76.00
2019-05-02T21:08:56.044Z,63.43
2019-05-02T21:11:42.800Z,62.17
2019-05-02T21:14:27.196Z,70.77
2019-05-02T21:17:12.827Z,74.93
2019-05-02T21:19:57.520Z,74.77
2019-05-02T21:22:42.340Z,79.55
2019-05-02T21:25:27.210Z,69.60
2019-05-02T21:28:12.012Z,72.60
2019-05-02T21:30:56.971Z,70.97
2019-05-02T21:33:42.759Z,74.73
2019-05-02T21:36:27.408Z,83.37
2019-05-02T21:39:12.301Z,75.30
2019-05-02T21:41:57.019Z,67.37
2019-05-02T21:44:42.221Z,65.87
2019-05-02T21:47:26.704Z,68.37
2019-05-02T21:50:16.676Z,65.27
2019-05-02T21:53:09.284Z,53.50
2019-05-02T21:55:55.635Z,54.17
2019-05-02T21:58:42.791Z,56.17
2019-05-02T22:01:27.876Z,48.13
2019-05-02T22:04:13.087Z,42.13
2019-05-02T22:06:58.403Z,33.63
2019-05-02T22:09:42.837Z,40.53
2019-05-02T22:12:27.586Z,37.80
2019-05-02T22:15:12.853Z,33.20
2019-05-02T22:17:57.333Z,30.77
2019-05-02T22:20:42.780Z,30.67
2019-05-02T22:23:27.373Z,27.43
2019-05-02T22:26:12.768Z,29.00
2019-05-02T22:28:57.542Z,26.37
2019-05-02T22:31:43.024Z,29.20
2019-05-02T22:34:28.244Z,29.20
2019-05-02T22:37:14.871Z,25.60
2019-05-02T22:40:03.613Z,29.30
2019-05-02T22:42:48.487Z,26.90
2019-05-02T22:45:33.228Z,30.20
2019-05-02T22:48:17.873Z,28.10
2019-05-02T22:51:02.753Z,22.67
2019-05-02T22:53:47.437Z,24.90
2019-05-02T22:56:32.075Z,22.27
2019-05-02T22:59:16.780Z,26.00
2019-05-02T23:02:02.181Z,23.80
2019-05-02T23:04:47.177Z,20.50
2019-05-02T23:07:32.111Z,19.53
2019-05-02T23:10:16.613Z,20.27
2019-05-02T23:13:02.384Z,18.20
2019-05-02T23:15:47.101Z,18.07
2019-05-02T23:18:32.022Z,13.73
2019-05-02T23:21:16.889Z,16.73
2019-05-02T23:24:03.359Z,12.00
2019-05-02T23:26:51.820Z,14.17
2019-05-02T23:29:36.404Z,13.80
2019-05-02T23:32:23.609Z,12.33
2019-05-02T23:35:07.941Z,12.83
2019-05-02T23:37:53.018Z,12.23
2019-05-02T23:40:38.116Z,11.67
2019-05-02T23:43:22.536Z,13.30
2019-05-02T23:46:07.267Z,13.60
2019-05-02T23:48:52.646Z,11.57
2019-05-02T23:51:37.553Z,10.57
2019-05-02T23:54:22.121Z,12.33
2019-05-02T23:57:06.687Z,13.03
2019-05-02T23:59:51.823Z,11.87
